createdAt,value
2018-09-15T00:01:16.974Z,101385.55
2018-09-15T00:06:19.131Z,101389.94
2018-09-15T00:11:21.273Z,101375.27
2018-09-15T00:16:23.434Z,101373.53
2018-09-15T00:21:25.572Z,101370.73
2018-09-15T00:26:27.722Z,101372.26
2018-09-15T00:31:29.843Z,101371.39
2018-09-15T00:36:31.986Z,101368.84
2018-09-15T00:41:34.156Z,101369.96
2018-09-15T00:51:51.444Z,101366.92
2018-09-15T00:56:53.607Z,101359.99
2018-09-15T01:01:55.735Z,101368.47
2018-09-15T01:06:57.893Z,101363.99
2018-09-15T01:12:00.039Z,101360.70
2018-09-15T01:17:02.166Z,101345.77
2018-09-15T01:22:04.323Z,101353.72
2018-09-15T01:27:06.493Z,101342.85
2018-09-15T01:32:08.633Z,101338.13
2018-09-15T01:37:10.763Z,101331.42
2018-09-15T01:42:12.915Z,101326.33
2018-09-15T01:47:15.030Z,101324.34
2018-09-15T01:52:17.158Z,101337.85
2018-09-15T01:57:19.302Z,101336.95
2018-09-15T02:02:21.456Z,101324.25
2018-09-15T02:07:23.609Z,101332.91
2018-09-15T02:12:25.746Z,101335.95
2018-09-15T02:17:27.870Z,101333.94
2018-09-15T02:22:30.023Z,101333.07
2018-09-15T02:27:32.178Z,101334.47
2018-09-15T02:32:34.355Z,101334.31
2018-09-15T02:37:36.496Z,101333.13
2018-09-15T02:42:38.617Z,101330.73
2018-09-15T02:47:41.128Z,101328.26
2018-09-15T02:52:43.283Z,101331.08
2018-09-15T02:57:45.432Z,101328.94
2018-09-15T03:02:47.538Z,101319.53
2018-09-15T03:07:49.674Z,101312.98
2018-09-15T03:12:51.937Z,101314.81
2018-09-15T03:17:54.078Z,101316.73
2018-09-15T03:22:56.238Z,101321.98
2018-09-15T03:27:58.371Z,101332.94
2018-09-15T03:33:00.470Z,101342.17
2018-09-15T03:38:02.634Z,101333.91
2018-09-15T03:43:04.942Z,101336.13
2018-09-15T03:48:07.107Z,101329.59
2018-09-15T03:53:09.221Z,101322.33
2018-09-15T03:58:11.386Z,101331.13
2018-09-15T04:03:13.533Z,101338.59
2018-09-15T04:08:15.646Z,101334.38
2018-09-15T04:13:17.764Z,101336.82
2018-09-15T04:18:19.878Z,101343.00
2018-09-15T04:23:22.008Z,101351.34
2018-09-15T04:28:24.206Z,101354.98
2018-09-15T04:33:26.302Z,101363.85
2018-09-15T04:38:28.442Z,101373.92
2018-09-15T04:43:30.549Z,101374.33
2018-09-15T04:48:32.650Z,101375.89
2018-09-15T04:53:34.795Z,101370.40
2018-09-15T04:58:37.011Z,101371.23
2018-09-15T05:03:39.155Z,101375.60
2018-09-15T05:08:41.288Z,101378.28
2018-09-15T05:13:43.430Z,101376.69
2018-09-15T05:18:45.583Z,101385.37
2018-09-15T05:23:47.706Z,101392.27
2018-09-15T05:28:49.866Z,101405.67
2018-09-15T05:33:52.056Z,101409.30
2018-09-15T05:38:54.212Z,101409.34
2018-09-15T05:43:56.309Z,101412.36
2018-09-15T05:48:58.415Z,101412.98
2018-09-15T05:54:00.661Z,101416.68
2018-09-15T05:59:02.877Z,101422.64
2018-09-15T06:04:05.090Z,101421.47
2018-09-15T06:09:08.256Z,101432.27
2018-09-15T06:14:10.431Z,101445.48
2018-09-15T06:19:12.561Z,101444.32
2018-09-15T06:24:14.741Z,101453.88
2018-09-15T06:29:17.446Z,101460.16
2018-09-15T06:34:19.595Z,101462.68
2018-09-15T06:39:21.817Z,101465.98
2018-09-15T06:44:23.925Z,101467.59
2018-09-15T06:49:26.051Z,101470.86
2018-09-15T06:54:28.219Z,101480.55
2018-09-15T06:59:30.418Z,101473.05
2018-09-15T07:04:32.569Z,101478.86
2018-09-15T07:09:34.677Z,101485.56
2018-09-15T07:14:36.822Z,101487.97
2018-09-15T07:19:38.981Z,101486.20
2018-09-15T07:24:41.121Z,101502.50
2018-09-15T07:29:43.272Z,101508.09
2018-09-15T07:34:45.460Z,101524.54
2018-09-15T07:39:47.582Z,101529.27
2018-09-15T07:44:49.937Z,101544.68
2018-09-15T07:49:52.128Z,101555.01
2018-09-15T07:54:54.306Z,101542.54
2018-09-15T07:59:56.542Z,101549.48
2018-09-15T08:04:58.765Z,101558.78
2018-09-15T08:10:00.952Z,101559.41
2018-09-15T08:15:03.149Z,101562.14
2018-09-15T08:20:06.264Z,101562.33
2018-09-15T08:25:08.795Z,101569.05
2018-09-15T08:30:10.964Z,101568.47
2018-09-15T08:35:13.116Z,101569.67
2018-09-15T08:40:15.338Z,101571.27
2018-09-15T08:45:18.036Z,101580.13
2018-09-15T08:50:20.206Z,101578.70
2018-09-15T08:55:22.365Z,101571.06
2018-09-15T09:00:24.619Z,101578.73
2018-09-15T09:05:26.752Z,101589.87
2018-09-15T09:10:28.892Z,101588.14
2018-09-15T09:15:31.043Z,101598.28
2018-09-15T09:20:33.167Z,101596.10
2018-09-15T09:25:35.314Z,101600.23
2018-09-15T09:30:37.460Z,101607.36
2018-09-15T09:35:39.673Z,101605.37
2018-09-15T09:40:41.849Z,101602.30
2018-09-15T09:45:44.023Z,101610.02
2018-09-15T09:50:46.211Z,101611.92
2018-09-15T09:55:48.558Z,101617.25
2018-09-15T10:00:56.420Z,101608.70
2018-09-15T10:05:58.698Z,101607.20
2018-09-15T10:11:00.854Z,101607.81
2018-09-15T10:16:03.090Z,101617.79
2018-09-15T10:21:05.206Z,101619.13
2018-09-15T10:26:07.502Z,101618.31
2018-09-15T10:31:09.704Z,101622.75
2018-09-15T10:36:12.272Z,101624.84
2018-09-15T10:41:14.591Z,101632.83
2018-09-15T10:46:16.813Z,101641.30
2018-09-15T10:51:18.959Z,101631.09
2018-09-15T10:56:21.183Z,101636.87
2018-09-15T11:01:23.361Z,101638.13
2018-09-15T11:06:25.589Z,101642.50
2018-09-15T11:11:27.791Z,101651.83
2018-09-15T11:16:30.539Z,101646.77
2018-09-15T11:21:32.741Z,101642.86
2018-09-15T11:26:34.928Z,101649.61
2018-09-15T11:31:37.559Z,101652.66
2018-09-15T11:36:39.777Z,101663.20
2018-09-15T11:41:41.957Z,101666.61
2018-09-15T11:46:44.123Z,101664.38
2018-09-15T11:51:46.319Z,101667.33
2018-09-15T11:56:48.502Z,101674.80
2018-09-15T12:01:50.781Z,101677.02
2018-09-15T12:06:52.972Z,101689.56
2018-09-15T12:11:55.187Z,101694.34
2018-09-15T12:16:57.388Z,101708.78
2018-09-15T12:21:59.548Z,101721.63
2018-09-15T12:27:01.712Z,101722.64
2018-09-15T12:32:03.930Z,101721.05
2018-09-15T12:37:06.161Z,101721.86
2018-09-15T12:42:08.364Z,101736.69
2018-09-15T12:47:10.526Z,101730.62
2018-09-15T12:52:12.751Z,101736.91
2018-09-15T12:57:14.927Z,101731.70
2018-09-15T13:02:17.126Z,101735.13
2018-09-15T13:07:19.311Z,101735.34
2018-09-15T13:12:21.478Z,101739.42
2018-09-15T13:17:23.762Z,101756.47
2018-09-15T13:22:25.939Z,101753.39
2018-09-15T13:27:28.153Z,101756.47
2018-09-15T13:32:31.019Z,101760.16
2018-09-15T13:37:33.139Z,101764.84
2018-09-15T13:42:35.272Z,101768.47
2018-09-15T13:47:37.422Z,101776.16
2018-09-15T13:52:39.607Z,101780.15
2018-09-15T13:57:41.793Z,101786.11
2018-09-15T14:02:44.136Z,101792.33
2018-09-15T14:07:46.320Z,101789.69
2018-09-15T14:12:48.508Z,101784.89
2018-09-15T14:17:50.686Z,101790.48
2018-09-15T14:22:52.864Z,101790.52
2018-09-15T14:27:55.054Z,101808.64
2018-09-15T14:32:57.251Z,101808.41
2018-09-15T14:37:59.435Z,101822.13
2018-09-15T14:43:01.989Z,101831.50
2018-09-15T14:48:04.618Z,101841.34
2018-09-15T14:53:06.783Z,101846.03
2018-09-15T14:58:08.976Z,101850.91
2018-09-15T15:03:11.871Z,101853.56
2018-09-15T15:08:14.068Z,101853.73
2018-09-15T15:13:16.229Z,101849.15
2018-09-15T15:18:18.396Z,101848.94
2018-09-15T15:23:20.575Z,101839.91
2018-09-15T15:28:22.730Z,101828.52
2018-09-15T15:33:24.980Z,101826.77
2018-09-15T15:38:27.158Z,101822.94
2018-09-15T15:43:29.405Z,101839.08
2018-09-15T15:48:31.596Z,101848.83
2018-09-15T15:53:33.758Z,101844.41
2018-09-15T15:58:36.041Z,101855.48
2018-09-15T16:03:38.179Z,101846.92
2018-09-15T16:08:40.363Z,101854.09
2018-09-15T16:13:42.591Z,101859.38
2018-09-15T16:18:44.798Z,101855.90
2018-09-15T16:23:46.979Z,101853.86
2018-09-15T16:28:49.411Z,101851.67
2018-09-15T16:33:51.896Z,101860.31
2018-09-15T16:38:54.094Z,101862.44
2018-09-15T16:43:56.358Z,101877.61
2018-09-15T16:48:58.511Z,101873.70
2018-09-15T16:54:00.701Z,101876.33
2018-09-15T16:59:02.905Z,101875.81
2018-09-15T17:04:05.167Z,101873.27
2018-09-15T17:09:08.785Z,101868.73
2018-09-15T17:14:10.973Z,101864.52
2018-09-15T17:19:13.179Z,101865.85
2018-09-15T17:24:15.407Z,101870.19
2018-09-15T17:29:17.578Z,101870.28
2018-09-15T17:34:19.744Z,101874.25
2018-09-15T17:39:21.952Z,101880.73
2018-09-15T17:44:24.100Z,101891.31
2018-09-15T17:49:26.275Z,101889.71
2018-09-15T17:54:28.527Z,101895.77
2018-09-15T17:59:30.782Z,101901.36
2018-09-15T18:04:33.007Z,101904.87
2018-09-15T18:09:35.264Z,101918.88
2018-09-15T18:14:37.389Z,101921.81
2018-09-15T18:19:39.585Z,101926.73
2018-09-15T18:24:41.825Z,101934.72
2018-09-15T18:29:43.984Z,101937.84
2018-09-15T18:34:46.173Z,101938.89
2018-09-15T18:39:48.491Z,101949.24
2018-09-15T18:44:50.680Z,101952.02
2018-09-15T18:49:52.879Z,101955.52
2018-09-15T18:54:55.145Z,101961.22
2018-09-15T18:59:57.383Z,101963.07
2018-09-15T19:04:59.717Z,101973.70
2018-09-15T19:10:01.979Z,101979.58
2018-09-15T19:15:04.313Z,101978.90
2018-09-15T19:20:07.524Z,101983.53
2018-09-15T19:25:10.054Z,101993.58
2018-09-15T19:30:12.387Z,101996.42
2018-09-15T19:35:14.757Z,102004.04
2018-09-15T19:40:17.113Z,101999.61
2018-09-15T19:45:19.580Z,102000.52
2018-09-15T19:50:21.915Z,102012.70
2018-09-15T19:55:24.152Z,102006.42
2018-09-15T20:00:26.402Z,102010.64
2018-09-15T20:05:28.788Z,102007.08
2018-09-15T20:10:31.064Z,102021.77
2018-09-15T20:15:32.383Z,102024.07
2018-09-15T20:20:33.688Z,102029.21
2018-09-15T20:25:35.972Z,102017.66
2018-09-15T20:30:38.569Z,102013.84
2018-09-15T20:35:41.005Z,102015.89
2018-09-15T20:40:43.187Z,102016.97
2018-09-15T20:45:45.432Z,102015.98
2018-09-15T20:50:47.653Z,102018.39
2018-09-15T20:55:49.876Z,102016.55
2018-09-15T21:00:52.112Z,102013.75
2018-09-15T21:05:54.402Z,102017.70
2018-09-15T21:10:56.567Z,102015.41
2018-09-15T21:15:58.749Z,102016.09
2018-09-15T21:21:00.990Z,102018.23
2018-09-15T21:26:03.161Z,102029.06
2018-09-15T21:31:05.589Z,102029.45
2018-09-15T21:36:07.772Z,102036.68
2018-09-15T21:41:09.958Z,102040.55
2018-09-15T21:46:12.190Z,102036.95
2018-09-15T21:51:14.462Z,102045.88
2018-09-15T21:56:16.625Z,102043.00
2018-09-15T22:01:18.825Z,102053.64
2018-09-15T22:06:21.111Z,102056.84
2018-09-15T22:11:23.343Z,102045.21
2018-09-15T22:16:25.548Z,102049.16
2018-09-15T22:21:27.757Z,102047.06
2018-09-15T22:26:29.997Z,102052.03
2018-09-15T22:31:32.154Z,102052.86
2018-09-15T22:36:34.298Z,102051.30
2018-09-15T22:41:37.175Z,102058.11
2018-09-15T22:46:39.318Z,102051.11
2018-09-15T22:51:41.503Z,102049.41
2018-09-15T22:56:43.750Z,102053.97
2018-09-15T23:01:45.894Z,102051.02
2018-09-15T23:06:48.179Z,102059.47
2018-09-15T23:11:50.349Z,102057.49
2018-09-15T23:16:52.865Z,102052.86
2018-09-15T23:21:55.099Z,102054.07
2018-09-15T23:26:57.214Z,102053.74
2018-09-15T23:31:59.346Z,102058.14
2018-09-15T23:37:01.503Z,102057.98
2018-09-15T23:42:03.680Z,102056.59
2018-09-15T23:47:05.807Z,102053.29
2018-09-15T23:52:08.182Z,102051.31
2018-09-15T23:57:10.320Z,102047.12
